createdAt,value
2022-12-26T00:07:15.619Z,46.80
2022-12-26T00:17:19.803Z,63.10
2022-12-26T00:27:25.097Z,46.20
2022-12-26T00:37:29.079Z,40.30
2022-12-26T00:47:33.154Z,37.30
2022-12-26T00:57:37.562Z,106.70
2022-12-26T01:08:23.618Z,37.20
2022-12-26T01:18:07.099Z,35.30
2022-12-26T01:28:10.959Z,43.50
2022-12-26T01:38:15.014Z,30.10
2022-12-26T01:48:33.848Z,34.60
2022-12-26T01:58:48.160Z,48.40
2022-12-26T02:08:52.635Z,37.00
2022-12-26T02:18:56.624Z,28.10
2022-12-26T02:29:03.374Z,29.10
2022-12-26T02:39:47.347Z,27.90
2022-12-26T02:50:27.367Z,16.00
2022-12-26T03:00:53.445Z,7.10
2022-12-26T03:11:17.927Z,6.80
2022-12-26T03:21:27.975Z,6.20
2022-12-26T03:31:31.837Z,5.60
2022-12-26T03:42:16.962Z,5.10
2022-12-26T03:52:58.288Z,4.50
2022-12-26T04:03:30.139Z,4.20
2022-12-26T04:14:05.481Z,4.00
2022-12-26T04:24:59.189Z,4.70
2022-12-26T04:36:01.485Z,4.30
2022-12-26T04:46:07.858Z,4.00
2022-12-26T04:56:11.715Z,4.90
2022-12-26T05:06:34.189Z,4.20
2022-12-26T05:16:56.476Z,4.20
2022-12-26T05:27:19.479Z,4.50
2022-12-26T05:37:24.175Z,5.10
2022-12-26T05:47:28.159Z,4.80
2022-12-26T05:57:33.156Z,4.60
2022-12-26T06:07:37.118Z,4.70
2022-12-26T06:17:41.829Z,5.20
2022-12-26T06:27:45.779Z,4.40
2022-12-26T06:37:49.985Z,5.60
2022-12-26T06:47:54.241Z,4.30
2022-12-26T06:57:58.100Z,5.40
2022-12-26T07:08:02.001Z,5.90
2022-12-26T07:18:06.169Z,5.80
2022-12-26T07:28:10.560Z,6.20
2022-12-26T07:38:15.023Z,6.10
2022-12-26T07:48:19.281Z,5.80
2022-12-26T07:58:23.287Z,5.70
2022-12-26T08:08:27.346Z,6.10
2022-12-26T08:18:31.327Z,5.70
2022-12-26T08:28:36.015Z,6.70
2022-12-26T08:38:41.723Z,7.50
2022-12-26T08:48:47.915Z,8.70
2022-12-26T08:58:52.140Z,7.90
2022-12-26T09:08:56.348Z,8.10
2022-12-26T09:19:02.534Z,9.30
2022-12-26T09:29:06.921Z,7.90
2022-12-26T09:39:12.434Z,7.50
2022-12-26T09:49:45.664Z,5.40
2022-12-26T09:59:56.328Z,6.00
2022-12-26T10:10:14.809Z,11.10
2022-12-26T10:20:33.216Z,8.30
2022-12-26T10:30:42.055Z,9.00
2022-12-26T10:40:50.822Z,9.60
2022-12-26T10:50:54.830Z,9.90
2022-12-26T11:01:27.817Z,7.60
2022-12-26T11:11:49.146Z,7.90
2022-12-26T11:21:53.544Z,6.50
2022-12-26T11:32:03.529Z,7.50
2022-12-26T11:42:21.726Z,8.90
2022-12-26T11:52:57.349Z,5.50
2022-12-26T12:03:03.180Z,7.80
2022-12-26T12:13:32.502Z,7.40
2022-12-26T12:24:07.642Z,8.60
2022-12-26T12:34:31.608Z,6.50
2022-12-26T12:45:13.795Z,6.30
2022-12-26T12:55:32.050Z,6.50
2022-12-26T13:05:56.946Z,8.50
2022-12-26T13:16:12.975Z,7.90
2022-12-26T13:26:24.304Z,7.10
2022-12-26T13:36:53.506Z,10.60
2022-12-26T13:47:02.535Z,12.50
2022-12-26T13:57:28.580Z,9.00
2022-12-26T14:19:46.879Z,16.20
2022-12-26T14:30:28.621Z,20.10
2022-12-26T14:52:25.207Z,18.60
2022-12-26T15:02:35.257Z,17.40
2022-12-26T15:12:41.384Z,21.90
2022-12-26T15:23:30.707Z,26.40
2022-12-26T15:33:49.979Z,24.00
2022-12-26T15:44:20.959Z,21.80
2022-12-26T15:54:47.819Z,25.00
2022-12-26T16:05:12.490Z,31.30
2022-12-26T16:15:18.605Z,19.20
2022-12-26T16:25:25.896Z,22.50
2022-12-26T16:45:46.232Z,15.20
2022-12-26T16:56:43.598Z,14.40
2022-12-26T17:07:22.980Z,12.00
2022-12-26T17:17:42.660Z,11.20
2022-12-26T17:28:17.425Z,9.40
2022-12-26T17:38:30.677Z,10.90
2022-12-26T17:48:35.753Z,10.50
2022-12-26T17:58:41.118Z,11.10
2022-12-26T18:08:46.080Z,11.80
2022-12-26T18:18:51.116Z,10.40
2022-12-26T18:28:56.990Z,21.10
2022-12-26T18:39:02.005Z,26.50
2022-12-26T18:49:06.604Z,11.60
2022-12-26T18:59:12.120Z,13.20
2022-12-26T19:09:17.709Z,13.30
2022-12-26T19:19:28.532Z,13.10
2022-12-26T19:29:35.455Z,14.80
2022-12-26T19:39:41.645Z,17.40
2022-12-26T19:49:47.067Z,11.20
2022-12-26T19:59:52.119Z,11.90
2022-12-26T20:09:57.488Z,9.90
2022-12-26T20:20:01.787Z,9.80
2022-12-26T20:30:08.057Z,9.70
2022-12-26T20:40:13.909Z,9.20
2022-12-26T20:50:19.247Z,11.80
2022-12-26T21:00:24.386Z,10.30
2022-12-26T21:10:29.121Z,13.10
2022-12-26T21:20:36.683Z,6.40
2022-12-26T21:30:45.699Z,7.50
2022-12-26T21:40:50.399Z,7.20
2022-12-26T21:50:54.721Z,6.50
2022-12-26T22:00:59.011Z,5.00
2022-12-26T22:11:22.425Z,4.90
2022-12-26T22:21:26.795Z,5.40
2022-12-26T22:31:33.487Z,6.00
2022-12-26T22:41:38.533Z,5.80
2022-12-26T22:51:42.497Z,6.00
2022-12-26T23:01:46.439Z,5.60
2022-12-26T23:12:10.807Z,6.20
2022-12-26T23:22:15.000Z,4.90
2022-12-26T23:32:19.069Z,5.60
2022-12-26T23:42:23.263Z,5.90
2022-12-26T23:52:30.696Z,5.60
